Time;durP1;ratioP1;P1;durP2;ratioP2;P2;SDS_P1;SDS_P2;PMS_P1;PMS_P2;Temp;Humidity;BMP_temperature;BMP_pressure;BME280_temperature;BME280_humidity;BME280_pressure;Samples;Min_cycle;Max_cycle;Signal;HPM_P1;HPM_P2
2022/03/15 00:00:31;;;;;;;15.57;7.68;;;5.50;90.70;;;;;;6098443;23;95444;-69
2022/03/15 00:02:58;;;;;;;14.60;8.48;;;5.50;90.80;;;;;;6123306;23;92402;-69
2022/03/15 00:05:26;;;;;;;13.27;7.93;;;5.50;90.80;;;;;;6123586;23;92043;-70
2022/03/15 00:07:53;;;;;;;14.70;8.50;;;5.50;90.80;;;;;;6123265;23;93236;-69
2022/03/15 00:10:20;;;;;;;17.55;9.80;;;5.50;90.70;;;;;;6122929;23;95444;-70
2022/03/15 00:12:47;;;;;;;16.02;8.60;;;5.60;90.80;;;;;;6123231;22;94846;-69
2022/03/15 00:15:15;;;;;;;17.88;10.05;;;5.50;90.80;;;;;;6124880;22;92440;-69
2022/03/15 00:17:44;;;;;;;21.33;10.57;;;5.60;90.90;;;;;;6122310;23;95640;-70
2022/03/15 00:20:18;;;;;;;20.20;10.38;;;5.60;91.00;;;;;;6122736;23;92855;-75
2022/03/15 00:22:47;;;;;;;17.58;9.80;;;5.60;91.00;;;;;;6122443;23;92428;-69
2022/03/15 00:25:18;;;;;;;21.55;10.77;;;5.60;91.00;;;;;;6125279;22;92372;-75
2022/03/15 00:27:52;;;;;;;20.55;10.75;;;5.60;91.10;;;;;;6122497;23;93150;-69
2022/03/15 00:30:21;;;;;;;24.20;11.73;;;5.60;91.10;;;;;;6122856;23;94150;-69
2022/03/15 00:32:51;;;;;;;19.80;10.88;;;5.70;91.20;;;;;;6123878;22;92350;-75
2022/03/15 00:35:22;;;;;;;20.05;11.02;;;5.70;91.20;;;;;;6098373;23;92498;-75
2022/03/15 00:37:52;;;;;;;19.50;10.73;;;5.70;91.20;;;;;;6096303;23;97124;-70
2022/03/15 00:40:22;;;;;;;20.00;12.27;;;5.70;91.20;;;;;;6121814;23;97879;-69
2022/03/15 00:42:53;;;;;;;22.25;11.68;;;5.70;91.20;;;;;;6122250;23;92343;-75
2022/03/15 00:45:28;;;;;;;23.02;12.10;;;5.70;91.20;;;;;;6122850;23;92324;-69
2022/03/15 00:47:57;;;;;;;22.23;12.60;;;5.80;91.20;;;;;;6123628;22;92991;-69
2022/03/15 00:50:28;;;;;;;26.58;12.93;;;5.80;91.20;;;;;;6123903;22;92934;-69
2022/03/15 00:52:56;;;;;;;18.85;12.40;;;5.80;91.20;;;;;;6123500;22;92727;-70
2022/03/15 00:55:23;;;;;;;26.25;14.15;;;5.90;91.20;;;;;;6122946;23;91729;-69
2022/03/15 00:57:50;;;;;;;19.17;13.57;;;5.80;91.20;;;;;;6122693;23;95867;-69
2022/03/15 01:00:19;;;;;;;20.70;13.18;;;5.90;91.20;;;;;;6123422;23;95409;-69
2022/03/15 01:02:46;;;;;;;22.30;13.60;;;5.90;91.20;;;;;;6097574;23;94876;-70
2022/03/15 01:05:13;;;;;;;25.48;13.98;;;5.90;91.30;;;;;;6123392;23;101511;-69
2022/03/15 01:07:40;;;;;;;24.05;14.10;;;5.90;91.30;;;;;;6074314;23;95874;-69
2022/03/15 01:10:07;;;;;;;26.35;14.38;;;5.90;91.20;;;;;;6123363;23;95544;-70
2022/03/15 01:12:34;;;;;;;23.17;13.23;;;5.90;91.20;;;;;;6098524;23;92552;-69
2022/03/15 01:15:07;;;;;;;20.85;13.63;;;5.90;91.20;;;;;;6125106;22;92426;-69
2022/03/15 01:17:35;;;;;;;28.90;15.00;;;5.90;91.30;;;;;;6123597;23;95736;-69
2022/03/15 01:20:07;;;;;;;28.98;14.35;;;5.90;91.30;;;;;;6123523;23;95266;-70
2022/03/15 01:22:36;;;;;;;28.33;14.48;;;5.90;91.30;;;;;;6123595;23;92494;-69
2022/03/15 01:25:06;;;;;;;29.17;15.18;;;5.90;91.40;;;;;;6123730;23;92820;-69
2022/03/15 01:27:36;;;;;;;24.80;13.63;;;5.90;91.40;;;;;;6123553;22;95341;-69
2022/03/15 01:30:05;;;;;;;24.98;14.15;;;5.90;91.40;;;;;;6122655;23;98051;-70
2022/03/15 01:32:32;;;;;;;22.83;13.85;;;5.90;91.40;;;;;;6098523;23;92432;-69
2022/03/15 01:34:59;;;;;;;24.70;14.90;;;5.90;91.40;;;;;;6098782;23;92497;-70
2022/03/15 01:37:26;;;;;;;30.25;14.38;;;5.90;91.50;;;;;;6125044;23;93387;-70
2022/03/15 01:39:56;;;;;;;25.67;14.93;;;5.80;91.50;;;;;;6098707;23;95670;-69
2022/03/15 01:42:23;;;;;;;24.00;14.38;;;5.80;91.50;;;;;;6122848;23;92370;-70
2022/03/15 01:44:50;;;;;;;27.90;15.85;;;5.80;91.50;;;;;;6123554;23;91715;-70
2022/03/15 01:47:18;;;;;;;25.42;15.20;;;5.80;91.50;;;;;;6123283;23;95731;-69
2022/03/15 01:49:46;;;;;;;27.48;15.93;;;5.70;91.50;;;;;;6122769;23;95646;-70
2022/03/15 01:52:15;;;;;;;22.27;14.45;;;5.70;91.50;;;;;;6121695;23;95088;-69
2022/03/15 01:54:44;;;;;;;28.00;14.63;;;5.70;91.60;;;;;;6125226;22;92353;-69
2022/03/15 01:57:13;;;;;;;23.42;14.75;;;5.70;91.60;;;;;;6123414;23;94836;-70
2022/03/15 01:59:41;;;;;;;30.35;15.55;;;5.70;91.70;;;;;;6123171;23;95371;-70
2022/03/15 02:02:09;;;;;;;28.77;17.08;;;5.70;91.70;;;;;;6119595;23;92540;-70
2022/03/15 02:04:36;;;;;;;35.42;17.40;;;5.60;91.80;;;;;;6099127;23;92459;-70
2022/03/15 02:07:09;;;;;;;27.60;15.30;;;5.70;91.80;;;;;;6098206;23;94910;-69
2022/03/15 02:09:37;;;;;;;34.63;15.88;;;5.60;91.90;;;;;;6123400;23;94099;-69
2022/03/15 02:12:05;;;;;;;27.85;14.93;;;5.60;91.90;;;;;;6123090;23;92423;-69
2022/03/15 02:14:34;;;;;;;26.83;15.13;;;5.60;92.20;;;;;;6125234;23;92429;-75
2022/03/15 02:17:01;;;;;;;26.50;15.65;;;5.60;91.80;;;;;;6121433;23;95572;-69
2022/03/15 02:19:29;;;;;;;29.58;15.13;;;5.50;91.80;;;;;;6124786;22;95469;-69
2022/03/15 02:21:57;;;;;;;30.52;14.68;;;5.50;91.80;;;;;;6124316;22;92395;-69
2022/03/15 02:24:25;;;;;;;29.05;15.57;;;5.50;91.70;;;;;;6125062;23;92471;-70
2022/03/15 02:26:52;;;;;;;24.08;15.20;;;5.40;91.70;;;;;;6124556;22;93163;-69
2022/03/15 02:29:20;;;;;;;29.05;17.45;;;5.40;91.70;;;;;;6124805;23;92803;-69
2022/03/15 02:31:48;;;;;;;28.23;15.80;;;5.50;91.80;;;;;;6122849;23;92475;-69
2022/03/15 02:34:17;;;;;;;29.90;15.30;;;5.40;91.90;;;;;;6099052;23;91717;-75
2022/03/15 02:36:44;;;;;;;23.45;14.80;;;5.40;91.90;;;;;;6123518;23;93166;-75
2022/03/15 02:39:11;;;;;;;25.80;14.77;;;5.40;92.00;;;;;;6124789;22;92393;-75
2022/03/15 02:41:38;;;;;;;28.50;16.52;;;5.40;91.90;;;;;;6123696;22;94816;-75
2022/03/15 02:44:06;;;;;;;26.02;15.23;;;5.30;91.90;;;;;;6123333;23;92509;-75
2022/03/15 02:46:34;;;;;;;24.73;15.15;;;5.40;91.90;;;;;;6123689;23;93229;-70
2022/03/15 02:49:02;;;;;;;24.48;14.48;;;5.40;91.90;;;;;;6124382;23;95388;-69
2022/03/15 02:51:30;;;;;;;30.77;15.15;;;5.30;91.80;;;;;;6124113;22;92466;-69
2022/03/15 02:53:57;;;;;;;25.30;14.93;;;5.30;91.80;;;;;;6122822;23;92752;-69
2022/03/15 02:56:24;;;;;;;21.67;14.30;;;5.30;91.90;;;;;;6124184;22;106192;-69
2022/03/15 02:58:51;;;;;;;27.13;15.07;;;5.30;91.80;;;;;;6124892;22;93027;-69
2022/03/15 03:01:19;;;;;;;26.85;14.40;;;5.30;91.80;;;;;;6122549;23;92429;-69
2022/03/15 03:03:47;;;;;;;24.45;14.27;;;5.30;92.10;;;;;;6124929;22;92398;-69
2022/03/15 03:06:14;;;;;;;23.15;14.75;;;5.30;91.80;;;;;;6122514;22;103510;-69
2022/03/15 03:08:42;;;;;;;27.15;15.32;;;5.30;91.90;;;;;;6123046;23;95403;-69
2022/03/15 03:11:10;;;;;;;32.72;17.42;;;5.40;91.90;;;;;;6097763;23;94723;-69
2022/03/15 03:13:37;;;;;;;31.10;18.02;;;5.40;92.00;;;;;;6123372;23;92460;-69
2022/03/15 03:16:06;;;;;;;30.17;18.05;;;5.50;92.00;;;;;;6098427;23;93163;-70
2022/03/15 03:18:34;;;;;;;28.10;17.23;;;5.50;92.00;;;;;;6123023;23;92927;-69
2022/03/15 03:21:04;;;;;;;33.90;17.90;;;5.50;92.00;;;;;;6123400;22;92733;-69
2022/03/15 03:23:33;;;;;;;30.48;16.30;;;5.50;92.00;;;;;;6098666;23;91729;-69
2022/03/15 03:26:00;;;;;;;31.63;16.98;;;5.50;92.00;;;;;;6122383;23;95656;-70
2022/03/15 03:28:34;;;;;;;32.78;17.80;;;5.50;92.00;;;;;;6122456;23;95775;-69
2022/03/15 03:31:01;;;;;;;36.60;19.75;;;5.50;92.00;;;;;;6121322;23;94956;-69
2022/03/15 03:33:28;;;;;;;36.28;17.88;;;5.50;92.10;;;;;;6123351;23;92506;-70
2022/03/15 03:35:55;;;;;;;28.70;16.52;;;5.50;92.10;;;;;;6124555;22;93199;-69
2022/03/15 03:38:22;;;;;;;34.28;18.75;;;5.50;92.10;;;;;;6123855;22;92922;-69
2022/03/15 03:40:50;;;;;;;35.33;19.73;;;5.50;92.00;;;;;;6098232;23;92673;-69
2022/03/15 03:43:17;;;;;;;42.80;20.10;;;5.40;92.00;;;;;;6124399;22;92439;-69
2022/03/15 03:45:44;;;;;;;38.80;19.05;;;5.40;92.20;;;;;;6124474;22;93040;-69
2022/03/15 03:48:12;;;;;;;34.40;20.23;;;5.40;92.20;;;;;;6122813;23;93054;-69
2022/03/15 03:50:40;;;;;;;39.53;21.10;;;5.40;92.20;;;;;;6124480;23;92379;-69
2022/03/15 03:53:07;;;;;;;39.40;19.50;;;5.40;92.20;;;;;;6124353;22;92292;-70
2022/03/15 03:55:34;;;;;;;28.80;19.20;;;5.40;92.30;;;;;;6096291;23;97936;-69
2022/03/15 03:58:01;;;;;;;37.88;20.40;;;5.40;92.30;;;;;;6123898;22;94259;-70
2022/03/15 04:00:28;;;;;;;33.55;19.98;;;5.40;92.30;;;;;;6123583;23;94620;-69
2022/03/15 04:03:00;;;;;;;36.80;19.92;;;5.40;92.30;;;;;;6124504;22;92607;-69
2022/03/15 04:05:30;;;;;;;34.53;21.33;;;5.40;92.30;;;;;;6122198;23;95677;-70
2022/03/15 04:08:01;;;;;;;33.00;19.13;;;5.50;92.50;;;;;;6122545;23;92690;-69
2022/03/15 04:10:34;;;;;;;29.45;18.77;;;5.50;92.50;;;;;;6124362;23;92377;-70
2022/03/15 04:13:02;;;;;;;31.83;20.02;;;5.50;92.40;;;;;;6124895;23;92024;-70
2022/03/15 04:15:32;;;;;;;31.25;18.92;;;5.60;92.60;;;;;;6122741;23;93210;-70
2022/03/15 04:17:59;;;;;;;29.05;17.95;;;5.60;92.60;;;;;;6123990;22;93008;-70
2022/03/15 04:20:28;;;;;;;28.90;18.38;;;5.70;92.60;;;;;;6122611;23;94766;-69
2022/03/15 04:22:54;;;;;;;30.80;17.48;;;5.70;92.60;;;;;;6122653;23;92511;-70
2022/03/15 04:25:22;;;;;;;32.60;19.50;;;5.80;92.50;;;;;;6122039;23;96191;-70
2022/03/15 04:27:49;;;;;;;31.40;18.83;;;5.80;92.50;;;;;;6123796;22;92709;-70
2022/03/15 04:30:17;;;;;;;29.38;18.50;;;5.80;92.40;;;;;;6097495;23;92369;-69
2022/03/15 04:32:44;;;;;;;36.88;18.75;;;5.80;92.30;;;;;;6124969;23;92493;-69
2022/03/15 04:35:11;;;;;;;30.95;18.92;;;5.90;92.30;;;;;;6124422;23;106291;-69
2022/03/15 04:37:38;;;;;;;32.35;18.65;;;5.90;92.30;;;;;;6125463;22;92929;-70
2022/03/15 04:40:07;;;;;;;30.38;18.02;;;6.00;92.20;;;;;;6125543;22;92403;-70
2022/03/15 04:42:36;;;;;;;26.52;19.00;;;6.00;92.20;;;;;;6099979;23;92858;-70
2022/03/15 04:45:04;;;;;;;25.58;16.55;;;6.00;92.20;;;;;;6123723;22;95773;-70
2022/03/15 04:47:34;;;;;;;26.75;17.70;;;6.10;92.20;;;;;;6124974;23;95216;-70
2022/03/15 04:50:01;;;;;;;34.25;18.23;;;6.10;92.10;;;;;;6123949;23;92390;-70
2022/03/15 04:52:28;;;;;;;34.85;18.58;;;6.10;92.10;;;;;;6123361;23;92516;-69
2022/03/15 04:54:55;;;;;;;29.75;18.30;;;6.20;92.10;;;;;;6123596;23;93248;-70
2022/03/15 04:57:21;;;;;;;29.67;18.63;;;6.20;92.00;;;;;;6123108;23;92501;-69
2022/03/15 04:59:48;;;;;;;35.35;19.67;;;6.30;92.00;;;;;;6125385;22;92424;-70
2022/03/15 05:02:15;;;;;;;33.63;20.27;;;6.30;92.00;;;;;;6123646;23;91798;-69
2022/03/15 05:04:42;;;;;;;37.03;19.75;;;6.40;92.20;;;;;;6125187;22;93028;-70
2022/03/15 05:07:09;;;;;;;37.50;20.92;;;6.40;92.20;;;;;;6123157;23;95815;-70
2022/03/15 05:11:05;;;;;;;36.83;20.50;;;6.40;92.20;;;;;;6122434;23;94820;-70
2022/03/15 05:12:25;;;;;;;33.35;21.48;;;6.50;92.20;;;;;;6125043;22;92447;-70
2022/03/15 05:14:53;;;;;;;38.70;20.70;;;6.50;92.20;;;;;;6125121;22;93250;-69
2022/03/15 05:17:20;;;;;;;35.45;21.77;;;6.60;92.30;;;;;;6122852;23;95544;-70
2022/03/15 05:19:47;;;;;;;34.05;20.75;;;6.60;92.30;;;;;;6125321;22;92375;-70
2022/03/15 05:22:16;;;;;;;38.25;21.63;;;6.60;92.30;;;;;;6124154;23;92365;-75
2022/03/15 05:24:43;;;;;;;36.40;21.45;;;6.70;92.20;;;;;;6125888;22;93034;-75
2022/03/15 05:27:10;;;;;;;36.45;20.40;;;6.70;92.20;;;;;;6126016;23;93094;-75
2022/03/15 05:29:37;;;;;;;38.40;22.67;;;6.70;92.20;;;;;;6099365;23;92411;-75
2022/03/15 05:32:05;;;;;;;40.10;24.05;;;6.80;92.20;;;;;;6124525;23;92399;-75
2022/03/15 05:34:31;;;;;;;35.45;20.90;;;6.80;92.10;;;;;;6122004;23;98099;-75
2022/03/15 05:36:58;;;;;;;41.03;23.67;;;6.80;92.10;;;;;;6099154;23;97919;-75
2022/03/15 05:39:26;;;;;;;44.88;23.30;;;6.80;92.20;;;;;;6099383;23;92391;-75
2022/03/15 05:41:53;;;;;;;46.72;23.33;;;6.80;92.10;;;;;;6123792;23;95042;-75
2022/03/15 05:44:21;;;;;;;42.55;22.17;;;6.80;92.10;;;;;;6123419;23;95902;-75
2022/03/15 05:46:48;;;;;;;36.72;22.92;;;6.90;92.20;;;;;;6099224;23;93978;-75
2022/03/15 05:49:15;;;;;;;42.40;24.40;;;6.80;92.10;;;;;;6123490;23;102339;-75
2022/03/15 05:51:44;;;;;;;43.58;24.23;;;6.90;92.10;;;;;;6126289;23;91687;-75
2022/03/15 05:54:11;;;;;;;39.38;23.23;;;6.90;92.00;;;;;;6125648;23;93270;-75
2022/03/15 05:56:41;;;;;;;42.10;23.45;;;6.90;92.00;;;;;;6123473;23;98767;-75
2022/03/15 05:59:08;;;;;;;48.35;24.15;;;6.90;92.00;;;;;;6124220;22;94722;-75
2022/03/15 06:01:35;;;;;;;55.72;25.67;;;7.00;92.00;;;;;;6124846;23;92450;-75
2022/03/15 06:04:05;;;;;;;47.50;24.50;;;6.90;92.00;;;;;;6123538;23;94033;-75
2022/03/15 06:06:32;;;;;;;46.05;24.63;;;7.00;92.00;;;;;;6122684;23;95553;-75
2022/03/15 06:08:59;;;;;;;45.08;24.63;;;7.00;91.90;;;;;;6125669;22;92386;-75
2022/03/15 06:11:26;;;;;;;44.15;25.42;;;7.00;91.90;;;;;;6125173;22;93635;-75
2022/03/15 06:13:53;;;;;;;46.88;25.27;;;7.00;91.90;;;;;;6125294;23;93288;-75
2022/03/15 06:16:20;;;;;;;41.65;24.23;;;7.10;91.90;;;;;;6125228;23;92983;-75
2022/03/15 06:18:47;;;;;;;51.70;26.52;;;7.10;91.90;;;;;;6125521;22;92355;-75
2022/03/15 06:21:14;;;;;;;52.67;25.40;;;7.10;91.90;;;;;;6125537;22;92378;-75
2022/03/15 06:23:41;;;;;;;43.70;25.15;;;7.10;91.90;;;;;;6123518;22;95473;-75
2022/03/15 06:26:28;;;;;;;49.58;25.85;;;7.10;91.80;;;;;;6125066;22;95368;-75
2022/03/15 06:28:55;;;;;;;45.17;24.98;;;7.20;91.80;;;;;;6125407;23;92292;-75
2022/03/15 06:31:22;;;;;;;47.53;26.17;;;7.20;91.80;;;;;;6123245;23;92597;-75
2022/03/15 06:33:49;;;;;;;45.60;24.30;;;7.30;91.80;;;;;;6125224;23;93043;-76
2022/03/15 06:36:16;;;;;;;44.15;25.17;;;7.30;91.80;;;;;;6123715;23;93014;-75
2022/03/15 06:38:43;;;;;;;45.33;24.30;;;7.40;91.70;;;;;;6124997;23;92331;-75
2022/03/15 06:41:12;;;;;;;44.97;24.40;;;7.40;91.70;;;;;;6126061;23;91727;-75
2022/03/15 06:43:40;;;;;;;46.65;26.30;;;7.50;91.60;;;;;;6123991;23;104654;-75
2022/03/15 06:46:11;;;;;;;44.75;25.73;;;7.50;91.60;;;;;;6098932;23;95505;-75
2022/03/15 06:48:38;;;;;;;43.22;25.52;;;7.60;91.50;;;;;;6097233;23;94857;-75
2022/03/15 06:51:05;;;;;;;51.30;26.85;;;7.70;91.60;;;;;;6123854;23;92470;-75
2022/03/15 06:53:32;;;;;;;45.75;26.40;;;7.70;91.50;;;;;;6124571;23;93291;-75
2022/03/15 06:56:01;;;;;;;48.42;28.38;;;7.80;91.50;;;;;;6074773;23;95587;-75
2022/03/15 06:58:28;;;;;;;43.03;26.38;;;7.80;91.30;;;;;;6123465;23;92433;-75
2022/03/15 07:00:55;;;;;;;41.70;25.25;;;7.90;91.30;;;;;;6098453;23;92551;-75
2022/03/15 07:03:23;;;;;;;41.45;24.73;;;7.90;91.20;;;;;;6098188;23;98563;-75
2022/03/15 07:05:49;;;;;;;40.40;24.15;;;8.00;91.10;;;;;;6123263;23;94283;-75
2022/03/15 07:08:17;;;;;;;40.67;24.52;;;8.00;91.00;;;;;;6125252;22;92872;-75
2022/03/15 07:10:43;;;;;;;39.40;24.15;;;8.10;91.00;;;;;;6123328;23;92462;-75
2022/03/15 07:13:10;;;;;;;40.95;25.40;;;8.20;91.00;;;;;;6121437;23;96568;-75
2022/03/15 07:15:37;;;;;;;40.00;26.20;;;8.20;91.00;;;;;;6124413;22;95410;-75
2022/03/15 07:18:05;;;;;;;38.08;25.05;;;8.30;90.90;;;;;;6125008;22;92360;-75
2022/03/15 07:20:32;;;;;;;39.85;23.90;;;8.40;90.80;;;;;;6123275;23;92449;-75
2022/03/15 07:22:59;;;;;;;40.50;25.00;;;8.50;90.60;;;;;;6124525;22;93009;-75
2022/03/15 07:25:26;;;;;;;39.88;25.80;;;8.50;90.60;;;;;;6124764;22;93078;-75
2022/03/15 07:27:54;;;;;;;38.80;24.98;;;8.60;90.50;;;;;;6124996;22;92327;-75
2022/03/15 07:30:21;;;;;;;41.00;24.40;;;8.70;90.30;;;;;;6125677;22;91668;-75
2022/03/15 07:32:48;;;;;;;39.65;24.90;;;8.80;90.20;;;;;;6124352;22;93097;-75
2022/03/15 07:35:16;;;;;;;42.40;26.58;;;8.90;90.20;;;;;;6123108;23;92920;-75
2022/03/15 07:37:51;;;;;;;38.10;25.58;;;9.00;90.00;;;;;;6123307;22;94770;-75
2022/03/15 07:40:18;;;;;;;34.92;23.98;;;9.10;89.90;;;;;;6125109;23;92291;-75
2022/03/15 07:42:46;;;;;;;33.67;24.50;;;9.20;89.60;;;;;;6124220;23;95371;-75
2022/03/15 07:45:13;;;;;;;36.20;25.38;;;9.20;89.20;;;;;;6124587;22;93027;-75
2022/03/15 07:47:40;;;;;;;34.17;23.65;;;9.30;88.80;;;;;;6124700;23;92411;-75
2022/03/15 07:50:08;;;;;;;36.95;24.90;;;9.40;88.70;;;;;;6124737;22;92333;-75
2022/03/15 07:52:35;;;;;;;36.38;25.48;;;9.40;88.60;;;;;;6124248;22;92371;-75
2022/03/15 07:55:02;;;;;;;36.35;24.98;;;9.50;88.50;;;;;;6125064;23;92974;-75
2022/03/15 07:57:29;;;;;;;32.90;23.85;;;9.60;88.20;;;;;;6123203;23;92445;-75
2022/03/15 07:59:56;;;;;;;40.35;25.80;;;9.70;88.10;;;;;;6122747;23;92410;-75
2022/03/15 08:02:24;;;;;;;36.45;24.40;;;9.70;87.70;;;;;;6120873;23;98055;-75
2022/03/15 08:04:53;;;;;;;37.92;24.88;;;9.80;87.50;;;;;;6124137;23;95427;-75
2022/03/15 08:07:24;;;;;;;38.13;24.95;;;9.90;87.20;;;;;;6122859;23;92874;-75
2022/03/15 08:09:51;;;;;;;39.65;25.23;;;9.90;87.00;;;;;;6098502;23;92491;-75
2022/03/15 08:12:18;;;;;;;37.38;25.02;;;10.00;86.90;;;;;;6121871;23;108174;-75
2022/03/15 08:14:47;;;;;;;35.03;24.38;;;10.00;86.70;;;;;;6098160;23;95666;-75
2022/03/15 08:17:14;;;;;;;34.15;24.67;;;10.00;86.30;;;;;;6123387;23;92372;-75
2022/03/15 08:19:41;;;;;;;37.03;24.02;;;10.10;86.40;;;;;;6124986;23;91620;-75
2022/03/15 08:22:08;;;;;;;37.33;24.60;;;10.10;86.30;;;;;;6118259;22;93221;-75
2022/03/15 08:24:35;;;;;;;34.22;23.58;;;10.10;86.00;;;;;;6122940;23;93025;-75
2022/03/15 08:27:02;;;;;;;36.38;25.35;;;10.20;86.10;;;;;;6123232;22;94722;-75
2022/03/15 08:29:30;;;;;;;39.55;24.63;;;10.20;85.80;;;;;;6124581;22;92434;-75
2022/03/15 08:32:01;;;;;;;36.35;23.15;;;10.20;85.70;;;;;;6124053;23;92402;-75
2022/03/15 08:34:28;;;;;;;37.40;24.75;;;10.20;85.60;;;;;;6114496;23;94076;-74
2022/03/15 08:36:55;;;;;;;36.15;25.67;;;10.30;85.60;;;;;;6099012;23;93233;-76
2022/03/15 08:39:23;;;;;;;34.22;24.08;;;10.30;85.70;;;;;;6101837;23;92529;-77
2022/03/15 08:41:52;;;;;;;32.65;24.98;;;10.30;85.60;;;;;;6104293;23;93267;-78
2022/03/15 08:44:20;;;;;;;30.30;23.50;;;10.30;85.60;;;;;;6101561;23;92980;-77
2022/03/15 08:46:50;;;;;;;33.65;24.88;;;10.40;85.60;;;;;;6076898;23;93484;-78
2022/03/15 08:49:19;;;;;;;33.92;24.13;;;10.40;85.70;;;;;;6100944;22;93441;-82
2022/03/15 08:51:47;;;;;;;36.33;25.35;;;10.40;85.70;;;;;;6073558;23;106187;-75
2022/03/15 08:54:14;;;;;;;33.70;23.35;;;10.50;85.80;;;;;;6095925;23;95358;-75
2022/03/15 08:56:42;;;;;;;35.72;24.73;;;10.50;85.60;;;;;;6098172;23;92379;-74
2022/03/15 08:59:12;;;;;;;34.55;25.30;;;10.50;85.50;;;;;;6098273;23;92455;-74
2022/03/15 09:01:39;;;;;;;33.13;24.50;;;10.50;85.60;;;;;;6123718;22;93226;-74
2022/03/15 09:04:07;;;;;;;33.90;24.67;;;10.50;85.50;;;;;;6124242;23;93048;-75
2022/03/15 09:06:34;;;;;;;34.65;24.33;;;10.50;85.30;;;;;;6124806;22;92275;-74
2022/03/15 09:09:01;;;;;;;31.98;23.05;;;10.50;85.30;;;;;;6098563;23;91692;-74
2022/03/15 09:11:29;;;;;;;33.85;25.42;;;10.50;85.30;;;;;;6123940;22;93195;-74
2022/03/15 09:13:57;;;;;;;35.17;25.52;;;10.50;85.50;;;;;;6122114;23;95640;-75
2022/03/15 09:16:25;;;;;;;36.35;25.17;;;10.50;85.50;;;;;;6121561;23;94760;-74
2022/03/15 09:18:53;;;;;;;35.95;24.25;;;10.50;85.60;;;;;;6122647;23;92833;-74
2022/03/15 09:21:19;;;;;;;35.33;25.40;;;10.60;85.60;;;;;;6123967;23;93134;-75
2022/03/15 09:23:46;;;;;;;35.58;26.15;;;10.60;85.80;;;;;;6125094;22;100970;-74
2022/03/15 09:26:13;;;;;;;35.03;26.20;;;10.60;85.60;;;;;;6126011;22;92322;-75
2022/03/15 09:28:41;;;;;;;35.05;26.27;;;10.60;86.00;;;;;;6099716;23;92509;-75
2022/03/15 09:31:08;;;;;;;40.65;27.65;;;10.70;86.40;;;;;;6099637;23;93241;-75
2022/03/15 09:33:36;;;;;;;34.88;25.30;;;10.70;85.50;;;;;;6125966;22;93123;-75
2022/03/15 09:36:04;;;;;;;43.85;27.88;;;10.70;85.60;;;;;;6099937;23;92810;-74
2022/03/15 09:38:32;;;;;;;36.33;25.48;;;10.70;85.80;;;;;;6124233;23;92511;-74
2022/03/15 09:41:04;;;;;;;39.22;25.45;;;10.70;85.90;;;;;;6123525;22;95492;-74
2022/03/15 09:43:36;;;;;;;37.92;26.13;;;10.80;85.60;;;;;;6125672;22;95403;-74
2022/03/15 09:46:05;;;;;;;45.05;27.23;;;10.80;85.40;;;;;;6124304;23;92361;-74
2022/03/15 09:48:54;;;;;;;33.67;25.60;;;10.80;85.70;;;;;;6125769;22;92418;-74
2022/03/15 09:51:21;;;;;;;38.03;27.80;;;10.80;85.50;;;;;;6123909;23;92519;-74
2022/03/15 09:53:50;;;;;;;41.75;28.80;;;10.80;85.40;;;;;;6123658;23;92404;-74
2022/03/15 09:56:19;;;;;;;44.65;29.33;;;10.70;87.60;;;;;;6148614;22;92513;-74
2022/03/15 09:58:49;;;;;;;45.22;30.65;;;10.40;88.40;;;;;;6124445;23;91632;-70
2022/03/15 10:01:17;;;;;;;44.40;29.02;;;10.20;89.70;;;;;;6123419;22;103923;-70
2022/03/15 10:03:45;;;;;;;58.38;33.83;;;10.10;90.60;;;;;;6124969;22;92929;-70
2022/03/15 10:06:15;;;;;;;54.08;32.60;;;10.10;90.80;;;;;;6123596;22;94695;-70
2022/03/15 10:08:43;;;;;;;43.70;30.40;;;10.10;90.90;;;;;;6125142;22;92745;-70
2022/03/15 10:11:12;;;;;;;47.75;30.77;;;10.10;91.00;;;;;;6124254;22;93031;-70
2022/03/15 10:13:41;;;;;;;44.50;31.05;;;10.10;90.80;;;;;;6124754;22;92668;-70
2022/03/15 10:16:13;;;;;;;40.55;28.17;;;10.10;91.00;;;;;;6098270;23;92500;-70
2022/03/15 10:18:51;;;;;;;42.83;29.77;;;10.20;90.70;;;;;;6124974;22;92274;-71
2022/03/15 10:21:20;;;;;;;42.10;29.83;;;10.30;90.60;;;;;;6098683;23;95874;-75
2022/03/15 10:23:47;;;;;;;40.22;26.95;;;10.30;90.40;;;;;;6123991;23;94010;-75
2022/03/15 10:26:27;;;;;;;40.92;28.90;;;10.30;90.30;;;;;;6124073;23;92347;-75
2022/03/15 10:28:56;;;;;;;34.65;27.85;;;10.50;90.20;;;;;;6123674;23;92841;-75
2022/03/15 10:31:24;;;;;;;39.58;29.05;;;10.50;90.20;;;;;;6123029;22;95583;-71
2022/03/15 10:33:55;;;;;;;37.85;27.27;;;10.60;90.20;;;;;;6124271;23;95378;-71
2022/03/15 10:36:22;;;;;;;37.97;27.88;;;10.80;90.00;;;;;;6123143;23;92340;-75
2022/03/15 10:38:51;;;;;;;39.10;29.08;;;11.00;90.00;;;;;;6099469;23;92476;-71
2022/03/15 10:41:19;;;;;;;36.90;27.67;;;11.20;89.20;;;;;;6122876;23;94161;-75
2022/03/15 10:43:53;;;;;;;33.03;27.15;;;11.30;88.00;;;;;;6098737;23;95660;-75
2022/03/15 10:46:25;;;;;;;37.47;27.75;;;11.60;87.60;;;;;;6124058;23;92483;-75
2022/03/15 10:49:00;;;;;;;37.22;27.77;;;11.80;87.50;;;;;;6123666;23;91686;-75
2022/03/15 10:51:27;;;;;;;34.28;26.02;;;12.00;87.10;;;;;;6123785;23;95588;-75
2022/03/15 10:54:00;;;;;;;36.55;28.65;;;12.10;86.10;;;;;;6124761;22;92865;-75
2022/03/15 10:56:27;;;;;;;36.70;27.67;;;12.20;85.50;;;;;;6122617;23;95310;-75
2022/03/15 10:59:03;;;;;;;33.72;25.92;;;12.20;85.00;;;;;;6125197;22;92469;-75
2022/03/15 11:01:40;;;;;;;34.22;25.58;;;12.20;84.80;;;;;;6124580;22;93087;-71
2022/03/15 11:04:09;;;;;;;76.35;30.90;;;12.30;84.30;;;;;;6123088;23;92927;-71
2022/03/15 11:06:50;;;;;;;34.55;25.85;;;12.30;84.70;;;;;;6124725;22;92313;-71
2022/03/15 11:09:43;;;;;;;33.17;25.30;;;12.30;84.30;;;;;;6123242;23;92792;-71
2022/03/15 11:12:11;;;;;;;33.75;26.92;;;12.30;84.60;;;;;;6124453;22;93150;-71
2022/03/15 11:14:54;;;;;;;32.45;24.45;;;12.20;84.50;;;;;;6123037;23;95717;-71
2022/03/15 11:17:26;;;;;;;36.55;26.25;;;12.20;84.60;;;;;;6123092;23;92526;-71
2022/03/15 11:19:56;;;;;;;33.25;26.65;;;12.20;84.90;;;;;;6124509;23;92468;-71
2022/03/15 11:22:30;;;;;;;31.23;25.63;;;12.30;85.30;;;;;;6123055;22;94762;-71
2022/03/15 11:25:08;;;;;;;27.05;21.75;;;12.40;85.20;;;;;;6124593;22;95244;-75
2022/03/15 11:27:40;;;;;;;33.83;24.23;;;12.60;84.60;;;;;;6124799;22;92607;-75
2022/03/15 11:30:16;;;;;;;32.88;23.98;;;12.70;83.40;;;;;;6124818;23;93063;-71
2022/03/15 11:32:44;;;;;;;28.92;24.65;;;12.90;82.60;;;;;;6122795;23;94382;-71
2022/03/15 11:35:19;;;;;;;30.55;23.77;;;13.10;82.10;;;;;;6124024;22;93092;-71
2022/03/15 11:37:48;;;;;;;31.20;24.23;;;13.20;81.30;;;;;;6122679;23;92448;-71
2022/03/15 11:40:18;;;;;;;30.30;24.17;;;13.30;80.70;;;;;;6124345;23;98893;-71
2022/03/15 11:42:57;;;;;;;27.00;21.88;;;13.30;80.50;;;;;;6124074;22;93940;-75
2022/03/15 11:45:30;;;;;;;32.30;22.50;;;13.40;80.30;;;;;;6123627;23;93001;-75
2022/03/15 11:48:49;;;;;;;32.05;22.85;;;13.40;79.60;;;;;;6121766;23;94907;-75
2022/03/15 11:51:41;;;;;;;28.45;22.33;;;13.50;79.10;;;;;;6105634;23;92923;-75
2022/03/15 11:54:42;;;;;;;29.25;21.33;;;13.60;79.00;;;;;;6123139;23;92418;-75
2022/03/15 11:57:21;;;;;;;27.38;21.58;;;13.60;78.30;;;;;;6122369;23;94028;-71
2022/03/15 11:59:52;;;;;;;26.77;22.30;;;13.60;78.30;;;;;;6125014;22;92407;-75
2022/03/15 12:02:39;;;;;;;31.10;22.83;;;13.70;78.40;;;;;;6098488;23;92497;-71
2022/03/15 12:05:20;;;;;;;25.40;20.23;;;13.80;77.70;;;;;;6124198;22;92559;-75
2022/03/15 12:08:12;;;;;;;25.30;21.25;;;13.90;77.20;;;;;;6124855;22;91867;-71
2022/03/15 12:11:02;;;;;;;28.23;22.58;;;14.00;77.10;;;;;;6123300;23;92410;-71
2022/03/15 12:13:45;;;;;;;26.88;21.70;;;14.10;76.90;;;;;;6124825;22;92460;-75
2022/03/15 12:16:25;;;;;;;25.48;20.17;;;14.20;76.60;;;;;;6122728;22;95357;-75
2022/03/15 12:19:13;;;;;;;25.77;21.08;;;14.20;76.80;;;;;;6122801;23;95351;-71
2022/03/15 12:21:49;;;;;;;29.23;19.23;;;14.30;76.50;;;;;;6124383;22;92407;-71
2022/03/15 12:24:18;;;;;;;31.05;20.23;;;14.20;76.50;;;;;;6097814;23;92432;-71
2022/03/15 12:26:58;;;;;;;29.25;23.30;;;14.20;76.10;;;;;;6123788;22;93232;-71
2022/03/15 12:29:29;;;;;;;24.70;19.05;;;14.30;76.60;;;;;;6123782;23;96964;-75
2022/03/15 12:32:08;;;;;;;27.10;21.88;;;14.30;76.00;;;;;;6124834;23;92287;-75
2022/03/15 12:34:35;;;;;;;30.40;21.95;;;14.40;75.90;;;;;;6125080;22;91734;-75
2022/03/15 12:37:06;;;;;;;29.48;21.98;;;14.40;76.00;;;;;;6124002;22;92473;-72
2022/03/15 12:39:34;;;;;;;25.92;21.55;;;14.40;75.90;;;;;;6123960;22;92944;-71
2022/03/15 12:42:22;;;;;;;30.17;21.73;;;14.50;75.50;;;;;;6122996;23;94737;-75
2022/03/15 12:44:52;;;;;;;26.98;21.60;;;14.60;75.30;;;;;;6124253;22;92295;-75